createdAt,value
2018-09-26T00:01:41.721Z,3.70
2018-09-26T00:04:29.605Z,3.77
2018-09-26T00:07:00.764Z,3.67
2018-09-26T00:09:32.160Z,3.50
2018-09-26T00:12:03.434Z,3.70
2018-09-26T00:14:35.275Z,3.60
2018-09-26T00:17:06.551Z,3.97
2018-09-26T00:19:37.794Z,3.60
2018-09-26T00:22:08.987Z,3.60
2018-09-26T00:24:40.251Z,3.63
2018-09-26T00:27:11.632Z,3.83
2018-09-26T00:29:43.026Z,3.77
2018-09-26T00:32:14.355Z,3.43
2018-09-26T00:34:45.562Z,3.83
2018-09-26T00:37:16.524Z,3.97
2018-09-26T00:39:47.762Z,3.90
2018-09-26T00:42:19.138Z,3.77
2018-09-26T00:44:50.325Z,3.63
2018-09-26T00:47:21.300Z,4.00
2018-09-26T00:49:52.509Z,4.27
2018-09-26T00:52:23.499Z,3.80
2018-09-26T00:54:54.679Z,4.50
2018-09-26T00:57:26.357Z,4.40
2018-09-26T00:59:57.697Z,3.90
2018-09-26T01:02:29.175Z,4.07
2018-09-26T01:05:00.240Z,4.07
2018-09-26T01:07:31.238Z,3.77
2018-09-26T01:10:02.416Z,4.07
2018-09-26T01:12:33.424Z,3.83
2018-09-26T01:15:04.704Z,4.00
2018-09-26T01:17:35.808Z,4.30
2018-09-26T01:20:06.991Z,3.90
2018-09-26T01:22:38.203Z,3.70
2018-09-26T01:25:09.692Z,3.50
2018-09-26T01:27:40.937Z,3.47
2018-09-26T01:30:12.206Z,3.63
2018-09-26T01:32:43.840Z,3.77
2018-09-26T01:35:15.139Z,3.47
2018-09-26T01:37:46.123Z,3.33
2018-09-26T01:40:17.318Z,3.30
2018-09-26T01:42:48.520Z,3.60
2018-09-26T01:45:19.579Z,3.50
2018-09-26T01:47:50.875Z,3.50
2018-09-26T01:50:22.375Z,3.60
2018-09-26T01:52:53.675Z,3.60
2018-09-26T01:55:24.680Z,3.23
2018-09-26T01:57:55.801Z,3.53
2018-09-26T02:00:27.772Z,3.27
2018-09-26T02:02:59.111Z,3.80
2018-09-26T02:05:30.251Z,3.40
2018-09-26T02:08:01.601Z,3.43
2018-09-26T02:10:32.805Z,3.63
2018-09-26T02:13:03.991Z,3.37
2018-09-26T02:15:35.195Z,4.40
2018-09-26T02:18:06.603Z,3.57
2018-09-26T02:20:37.587Z,3.93
2018-09-26T02:23:08.771Z,4.10
2018-09-26T02:25:39.774Z,4.10
2018-09-26T02:28:10.962Z,4.10
2018-09-26T02:30:42.407Z,3.90
2018-09-26T02:33:13.721Z,4.13
2018-09-26T02:35:44.902Z,4.30
2018-09-26T02:38:16.110Z,4.60
2018-09-26T02:40:47.315Z,4.57
2018-09-26T02:43:18.796Z,4.97
2018-09-26T02:45:50.150Z,4.67
2018-09-26T02:48:26.363Z,4.43
2018-09-26T02:50:57.567Z,4.50
2018-09-26T02:53:28.847Z,5.03
2018-09-26T02:56:00.120Z,4.53
2018-09-26T02:58:31.657Z,5.03
2018-09-26T03:01:02.950Z,5.00
2018-09-26T03:03:34.416Z,5.17
2018-09-26T03:06:05.494Z,5.40
2018-09-26T03:08:36.533Z,5.63
2018-09-26T03:11:07.951Z,6.37
2018-09-26T03:13:39.339Z,6.33
2018-09-26T03:16:10.480Z,6.40
2018-09-26T03:18:41.931Z,6.23
2018-09-26T03:21:13.142Z,5.90
2018-09-26T03:23:44.731Z,5.90
2018-09-26T03:26:16.040Z,6.03
2018-09-26T03:28:47.034Z,5.50
2018-09-26T03:31:18.263Z,5.73
2018-09-26T03:33:49.524Z,5.80
2018-09-26T03:36:20.779Z,5.90
2018-09-26T03:38:52.276Z,6.07
2018-09-26T03:41:23.554Z,5.23
2018-09-26T03:43:54.776Z,4.90
2018-09-26T03:46:26.169Z,4.90
2018-09-26T03:48:57.368Z,4.90
2018-09-26T03:51:28.549Z,5.73
2018-09-26T03:53:59.677Z,5.87
2018-09-26T03:56:30.762Z,6.10
2018-09-26T03:59:02.408Z,6.83
2018-09-26T04:01:33.695Z,6.97
2018-09-26T04:04:04.900Z,7.53
2018-09-26T04:06:36.128Z,8.00
2018-09-26T04:09:09.011Z,7.53
2018-09-26T04:11:40.524Z,7.97
2018-09-26T04:14:11.611Z,7.33
2018-09-26T04:16:42.649Z,5.87
2018-09-26T04:19:14.016Z,5.90
2018-09-26T04:21:45.500Z,6.00
2018-09-26T04:24:17.121Z,6.17
2018-09-26T04:26:48.432Z,5.77
2018-09-26T04:29:19.616Z,6.50
2018-09-26T04:31:51.016Z,6.57
2018-09-26T04:34:22.154Z,6.40
2018-09-26T04:36:53.461Z,6.37
2018-09-26T04:39:24.754Z,6.07
2018-09-26T04:41:55.930Z,6.50
2018-09-26T04:44:27.345Z,5.90
2018-09-26T04:46:58.516Z,6.80
2018-09-26T04:49:30.623Z,6.73
2018-09-26T04:52:01.892Z,6.57
2018-09-26T04:54:33.728Z,7.03
2018-09-26T04:57:05.051Z,7.23
2018-09-26T04:59:36.194Z,7.73
2018-09-26T05:02:07.257Z,7.53
2018-09-26T05:04:39.614Z,7.27
2018-09-26T05:07:10.960Z,7.93
2018-09-26T05:09:42.211Z,7.77
2018-09-26T05:12:13.556Z,7.87
2018-09-26T05:14:44.823Z,7.67
2018-09-26T05:17:16.213Z,7.57
2018-09-26T05:19:47.616Z,7.40
2018-09-26T05:22:18.916Z,7.60
2018-09-26T05:24:50.200Z,7.40
2018-09-26T05:27:21.496Z,8.10
2018-09-26T05:29:52.696Z,7.57
2018-09-26T05:32:23.694Z,7.83
2018-09-26T05:34:54.882Z,8.20
2018-09-26T05:37:26.765Z,8.30
2018-09-26T05:39:57.880Z,8.20
2018-09-26T05:42:29.539Z,8.13
2018-09-26T05:45:00.799Z,7.60
2018-09-26T05:47:32.199Z,7.30
2018-09-26T05:50:03.455Z,7.30
2018-09-26T05:52:34.589Z,7.40
2018-09-26T05:55:06.695Z,7.23
2018-09-26T05:57:37.747Z,7.33
2018-09-26T06:00:10.058Z,6.90
2018-09-26T06:02:41.329Z,7.20
2018-09-26T06:05:12.506Z,7.40
2018-09-26T06:07:43.541Z,7.30
2018-09-26T06:10:14.887Z,7.07
2018-09-26T06:12:46.103Z,6.97
2018-09-26T06:15:17.278Z,7.40
2018-09-26T06:17:48.485Z,7.23
2018-09-26T06:20:19.501Z,6.80
2018-09-26T06:22:50.827Z,6.93
2018-09-26T06:25:21.910Z,6.10
2018-09-26T06:27:53.062Z,6.70
2018-09-26T06:30:25.957Z,6.13
2018-09-26T06:32:57.234Z,5.80
2018-09-26T06:35:29.526Z,5.70
2018-09-26T06:38:00.608Z,5.80
2018-09-26T06:40:32.424Z,5.00
2018-09-26T06:43:03.553Z,5.23
2018-09-26T06:45:34.560Z,4.43
2018-09-26T06:48:05.840Z,3.73
2018-09-26T06:50:37.150Z,3.37
2018-09-26T06:53:08.395Z,3.10
2018-09-26T06:55:40.010Z,3.13
2018-09-26T06:58:11.108Z,2.90
2018-09-26T07:00:42.487Z,2.80
2018-09-26T07:03:13.492Z,3.03
2018-09-26T07:05:44.691Z,3.10
2018-09-26T07:08:16.292Z,2.83
2018-09-26T07:10:47.471Z,3.30
2018-09-26T07:13:18.815Z,3.30
2018-09-26T07:15:50.395Z,3.47
2018-09-26T07:18:21.580Z,3.13
2018-09-26T07:20:52.670Z,3.17
2018-09-26T07:23:23.907Z,4.07
2018-09-26T07:25:54.996Z,3.50
2018-09-26T07:28:26.199Z,3.03
2018-09-26T07:30:57.562Z,3.47
2018-09-26T07:33:29.007Z,3.17
2018-09-26T07:36:00.350Z,3.20
2018-09-26T07:38:31.559Z,3.13
2018-09-26T07:41:02.735Z,3.07
2018-09-26T07:43:33.740Z,3.00
2018-09-26T07:46:05.295Z,2.80
2018-09-26T07:48:36.376Z,2.80
2018-09-26T07:51:08.127Z,2.90
2018-09-26T07:53:39.378Z,3.03
2018-09-26T07:56:10.507Z,2.97
2018-09-26T07:58:41.835Z,2.90
2018-09-26T08:01:13.027Z,2.57
2018-09-26T08:03:44.225Z,2.70
2018-09-26T08:06:15.432Z,3.17
2018-09-26T08:08:47.231Z,2.50
2018-09-26T08:11:18.486Z,3.30
2018-09-26T08:13:49.779Z,3.10
2018-09-26T08:16:21.272Z,2.70
2018-09-26T08:18:52.562Z,2.73
2018-09-26T08:21:23.560Z,3.07
2018-09-26T08:23:54.704Z,3.00
2018-09-26T08:26:25.940Z,3.20
2018-09-26T08:28:57.130Z,2.90
2018-09-26T08:31:28.304Z,2.80
2018-09-26T08:33:59.524Z,2.53
2018-09-26T08:36:30.566Z,2.80
2018-09-26T08:39:01.920Z,2.67
2018-09-26T08:41:33.084Z,2.97
2018-09-26T08:44:04.378Z,2.73
2018-09-26T08:46:35.933Z,3.00
2018-09-26T08:49:07.128Z,2.97
2018-09-26T08:51:38.460Z,3.20
2018-09-26T08:54:09.564Z,3.00
2018-09-26T08:56:41.309Z,3.13
2018-09-26T08:59:12.654Z,2.50
2018-09-26T09:01:46.651Z,3.20
2018-09-26T09:04:18.751Z,3.10
2018-09-26T09:06:49.927Z,2.77
2018-09-26T09:09:21.100Z,2.80
2018-09-26T09:11:52.324Z,4.10
2018-09-26T09:14:23.337Z,3.03
2018-09-26T09:16:54.299Z,2.77
2018-09-26T09:19:25.451Z,3.03
2018-09-26T09:21:56.487Z,2.80
2018-09-26T09:24:27.898Z,2.83
2018-09-26T09:26:58.918Z,2.70
2018-09-26T09:29:30.326Z,3.10
2018-09-26T09:32:01.496Z,2.80
2018-09-26T09:34:32.637Z,3.07
2018-09-26T09:37:03.634Z,2.93
2018-09-26T09:39:34.816Z,2.90
2018-09-26T09:42:06.024Z,2.80
2018-09-26T09:44:37.197Z,2.83
2018-09-26T09:47:08.197Z,2.50
2018-09-26T09:49:39.385Z,2.80
2018-09-26T09:52:10.487Z,2.70
2018-09-26T09:54:41.828Z,2.97
2018-09-26T09:57:12.992Z,2.80
2018-09-26T09:59:44.432Z,2.40
2018-09-26T10:02:15.861Z,2.83
2018-09-26T10:04:47.135Z,2.97
2018-09-26T10:07:18.326Z,2.97
2018-09-26T10:09:50.087Z,2.97
2018-09-26T10:12:21.314Z,2.60
2018-09-26T10:14:52.692Z,2.60
2018-09-26T10:17:23.880Z,2.43
2018-09-26T10:19:54.887Z,2.97
2018-09-26T10:22:25.892Z,2.83
2018-09-26T10:24:57.070Z,3.37
2018-09-26T10:27:28.064Z,2.90
2018-09-26T10:29:59.016Z,2.93
2018-09-26T10:32:30.232Z,3.07
2018-09-26T10:35:01.626Z,2.67
2018-09-26T10:37:32.861Z,2.70
2018-09-26T10:40:04.170Z,2.70
2018-09-26T10:42:35.406Z,2.73
2018-09-26T10:45:06.623Z,2.80
2018-09-26T10:47:37.697Z,2.93
2018-09-26T10:50:09.587Z,2.87
2018-09-26T10:52:40.752Z,3.10
2018-09-26T10:55:12.355Z,2.87
2018-09-26T10:57:43.360Z,2.93
2018-09-26T11:00:14.838Z,3.10
2018-09-26T11:02:46.735Z,2.60
2018-09-26T11:06:20.644Z,2.67
2018-09-26T11:08:51.824Z,3.07
2018-09-26T11:11:25.110Z,2.67
2018-09-26T11:13:56.207Z,2.73
2018-09-26T11:16:27.581Z,2.87
2018-09-26T11:18:58.567Z,2.60
2018-09-26T11:21:30.422Z,2.90
2018-09-26T11:24:01.513Z,2.90
2018-09-26T11:26:32.724Z,2.77
2018-09-26T11:29:03.928Z,3.00
2018-09-26T11:31:35.086Z,3.00
2018-09-26T11:34:06.130Z,2.93
2018-09-26T11:36:37.541Z,3.15
2018-09-26T11:39:10.836Z,2.72
2018-09-26T11:41:42.071Z,2.70
2018-09-26T11:44:13.436Z,2.98
2018-09-26T11:46:44.615Z,2.77
2018-09-26T11:49:15.832Z,2.73
2018-09-26T11:51:47.008Z,2.87
2018-09-26T11:54:18.182Z,2.70
2018-09-26T11:56:49.195Z,3.00
2018-09-26T11:59:20.358Z,2.87
2018-09-26T12:01:51.585Z,3.03
2018-09-26T12:04:23.224Z,2.70
2018-09-26T12:06:54.524Z,3.08
2018-09-26T12:09:25.522Z,2.77
2018-09-26T12:11:57.033Z,2.60
2018-09-26T12:14:28.927Z,2.80
2018-09-26T12:17:00.455Z,2.33
2018-09-26T12:19:31.497Z,2.70
2018-09-26T12:22:02.683Z,2.83
2018-09-26T12:24:33.877Z,2.80
2018-09-26T12:27:04.866Z,2.93
2018-09-26T12:29:36.110Z,2.73
2018-09-26T12:32:07.460Z,2.87
2018-09-26T12:34:38.630Z,2.90
2018-09-26T12:37:09.815Z,3.07
2018-09-26T12:39:40.795Z,3.07
2018-09-26T12:42:12.284Z,3.13
2018-09-26T12:44:43.864Z,2.67
2018-09-26T12:47:15.266Z,3.20
2018-09-26T12:49:46.851Z,3.00
2018-09-26T12:52:18.169Z,2.80
2018-09-26T12:54:49.142Z,2.87
2018-09-26T12:57:20.327Z,3.27
2018-09-26T12:59:51.567Z,2.90
2018-09-26T13:02:23.634Z,2.80
2018-09-26T13:04:54.900Z,3.00
2018-09-26T13:07:26.103Z,3.02
2018-09-26T13:09:57.101Z,2.90
2018-09-26T13:12:28.587Z,2.90
2018-09-26T13:15:00.150Z,2.90
2018-09-26T13:17:31.430Z,3.00
2018-09-26T13:20:02.632Z,2.97
2018-09-26T13:22:33.827Z,3.30
2018-09-26T13:25:04.883Z,3.23
2018-09-26T13:27:36.511Z,2.83
2018-09-26T13:30:08.458Z,3.13
2018-09-26T13:32:39.592Z,2.97
2018-09-26T13:35:10.804Z,2.70
2018-09-26T13:37:42.146Z,2.87
2018-09-26T13:40:13.413Z,2.80
2018-09-26T13:42:44.519Z,3.03
2018-09-26T13:45:15.557Z,3.10
2018-09-26T13:47:46.753Z,3.20
2018-09-26T13:50:17.795Z,2.90
2018-09-26T13:52:49.530Z,3.47
2018-09-26T13:55:20.534Z,3.43
2018-09-26T13:57:52.200Z,3.33
2018-09-26T14:00:24.226Z,2.77
2018-09-26T14:02:55.463Z,2.97
2018-09-26T14:05:26.645Z,3.40
2018-09-26T14:07:57.819Z,3.50
2018-09-26T14:10:28.933Z,3.10
2018-09-26T14:13:00.039Z,3.20
2018-09-26T14:15:31.900Z,3.73
2018-09-26T14:18:03.198Z,3.33
2018-09-26T14:20:34.463Z,3.10
2018-09-26T14:23:05.690Z,3.37
2018-09-26T14:25:37.037Z,3.00
2018-09-26T14:28:08.205Z,3.50
2018-09-26T14:30:40.318Z,3.37
2018-09-26T14:33:11.566Z,3.00
2018-09-26T14:35:42.743Z,3.63
2018-09-26T14:38:13.926Z,3.00
2018-09-26T14:40:45.335Z,3.17
2018-09-26T14:43:16.689Z,3.30
2018-09-26T14:45:47.775Z,3.20
2018-09-26T14:48:19.082Z,3.40
2018-09-26T14:50:50.531Z,2.93
2018-09-26T14:53:21.866Z,3.30
2018-09-26T14:55:52.880Z,3.27
2018-09-26T14:58:24.240Z,3.47
2018-09-26T15:00:55.300Z,3.30
2018-09-26T15:03:26.690Z,3.40
2018-09-26T15:05:57.632Z,3.20
2018-09-26T15:08:28.675Z,3.03
2018-09-26T15:10:59.994Z,3.40
2018-09-26T15:13:30.979Z,3.30
2018-09-26T15:16:02.199Z,3.00
2018-09-26T15:18:33.219Z,3.40
2018-09-26T15:21:04.377Z,2.93
2018-09-26T15:23:35.535Z,3.20
2018-09-26T15:26:07.073Z,3.47
2018-09-26T15:28:45.696Z,3.40
2018-09-26T15:31:17.279Z,3.10
2018-09-26T15:33:48.567Z,3.17
2018-09-26T15:39:30.344Z,3.00
2018-09-26T15:42:01.588Z,2.90
2018-09-26T15:44:33.099Z,3.27
2018-09-26T15:47:04.691Z,2.70
2018-09-26T15:49:35.946Z,3.07
2018-09-26T15:52:07.520Z,3.10
2018-09-26T15:54:39.534Z,3.37
2018-09-26T15:57:10.514Z,3.00
2018-09-26T15:59:41.699Z,3.17
2018-09-26T16:02:13.273Z,3.00
2018-09-26T16:04:44.563Z,2.73
2018-09-26T16:07:15.576Z,3.10
2018-09-26T16:09:46.851Z,3.00
2018-09-26T16:12:18.070Z,3.33
2018-09-26T16:14:49.657Z,2.80
2018-09-26T16:17:20.633Z,3.33
2018-09-26T16:19:51.633Z,3.40
2018-09-26T16:22:22.850Z,2.67
2018-09-26T16:24:54.195Z,3.20
2018-09-26T16:27:25.419Z,3.40
2018-09-26T16:29:56.722Z,2.97
2018-09-26T16:32:27.980Z,2.90
2018-09-26T16:34:59.427Z,3.00
2018-09-26T16:37:30.874Z,3.33
2018-09-26T16:40:02.191Z,3.17
2018-09-26T16:42:33.352Z,3.00
2018-09-26T16:45:04.787Z,3.20
2018-09-26T16:47:36.103Z,3.23
2018-09-26T16:50:07.461Z,3.23
2018-09-26T16:52:38.699Z,3.13
2018-09-26T16:55:09.930Z,3.90
2018-09-26T16:57:41.319Z,4.43
2018-09-26T17:00:12.603Z,4.43
2018-09-26T17:02:43.683Z,4.60
2018-09-26T17:05:14.836Z,5.13
2018-09-26T17:07:45.972Z,5.07
2018-09-26T17:10:17.265Z,5.03
2018-09-26T17:12:48.264Z,5.37
2018-09-26T17:15:20.491Z,5.70
2018-09-26T17:17:51.786Z,6.37
2018-09-26T17:20:23.032Z,6.57
2018-09-26T17:22:54.166Z,6.30
2018-09-26T17:25:25.216Z,6.70
2018-09-26T17:27:56.621Z,6.47
2018-09-26T17:30:39.851Z,7.10
2018-09-26T17:33:11.190Z,6.80
2018-09-26T17:35:42.605Z,7.40
2018-09-26T17:38:13.957Z,9.90
2018-09-26T17:40:45.701Z,8.80
2018-09-26T17:43:16.723Z,9.03
2018-09-26T17:45:47.892Z,9.27
2018-09-26T17:48:18.945Z,9.10
2018-09-26T17:50:50.495Z,9.07
2018-09-26T17:53:21.889Z,9.37
2018-09-26T17:55:53.244Z,10.30
2018-09-26T17:58:24.249Z,10.17
2018-09-26T18:00:55.424Z,12.80
2018-09-26T18:03:26.636Z,9.70
2018-09-26T18:05:58.325Z,12.03
2018-09-26T18:08:29.478Z,9.13
2018-09-26T18:11:01.581Z,8.40
2018-09-26T18:13:32.616Z,8.43
2018-09-26T18:16:04.110Z,7.30
2018-09-26T18:18:35.315Z,6.80
2018-09-26T18:21:06.549Z,6.70
2018-09-26T18:23:37.567Z,6.40
2018-09-26T18:26:11.684Z,6.63
2018-09-26T18:28:42.862Z,6.23
2018-09-26T18:31:14.387Z,5.40
2018-09-26T18:33:45.627Z,5.07
2018-09-26T18:36:17.116Z,5.63
2018-09-26T18:38:48.457Z,5.17
2018-09-26T18:41:19.607Z,5.00
2018-09-26T18:43:51.595Z,4.50
2018-09-26T18:46:22.820Z,5.03
2018-09-26T18:48:54.170Z,4.47
2018-09-26T18:51:25.155Z,4.20
2018-09-26T18:53:56.357Z,4.60
2018-09-26T18:56:28.009Z,4.00
2018-09-26T18:58:59.343Z,4.00
2018-09-26T19:01:31.029Z,4.10
2018-09-26T19:04:02.134Z,3.50
2018-09-26T19:06:33.303Z,3.87
2018-09-26T19:09:05.447Z,3.60
2018-09-26T19:11:36.683Z,3.37
2018-09-26T19:14:07.964Z,3.20
2018-09-26T19:16:39.520Z,3.17
2018-09-26T19:19:10.833Z,3.00
2018-09-26T19:21:41.867Z,3.00
2018-09-26T19:24:13.317Z,2.93
2018-09-26T19:26:44.604Z,2.97
2018-09-26T19:29:15.606Z,2.80
2018-09-26T19:31:46.788Z,2.93
2018-09-26T19:34:18.036Z,2.50
2018-09-26T19:36:49.148Z,2.37
2018-09-26T19:39:20.391Z,2.40
2018-09-26T19:41:52.043Z,2.27
2018-09-26T19:44:23.332Z,2.90
2018-09-26T19:46:54.338Z,2.60
2018-09-26T19:49:25.737Z,2.63
2018-09-26T19:51:56.992Z,2.70
2018-09-26T19:54:28.829Z,2.70
2018-09-26T19:56:59.919Z,2.60
2018-09-26T19:59:31.280Z,2.37
2018-09-26T20:02:02.684Z,2.50
2018-09-26T20:04:33.835Z,2.30
2018-09-26T20:07:05.084Z,2.10
2018-09-26T20:09:36.415Z,1.97
2018-09-26T20:12:07.724Z,2.23
2018-09-26T20:14:39.015Z,2.37
2018-09-26T20:17:10.382Z,2.10
2018-09-26T20:19:41.601Z,1.83
2018-09-26T20:22:12.795Z,2.17
2018-09-26T20:24:44.632Z,2.10
2018-09-26T20:27:16.043Z,2.20
2018-09-26T20:29:47.360Z,2.13
2018-09-26T20:32:18.830Z,2.00
2018-09-26T20:34:50.008Z,2.23
2018-09-26T20:37:22.836Z,2.00
2018-09-26T20:39:54.092Z,2.50
2018-09-26T20:42:25.071Z,2.40
2018-09-26T20:44:57.297Z,2.50
2018-09-26T20:47:29.206Z,2.43
2018-09-26T20:50:00.449Z,2.67
2018-09-26T20:52:32.279Z,2.80
2018-09-26T20:55:03.625Z,2.63
2018-09-26T20:57:34.968Z,2.50
2018-09-26T21:00:06.356Z,2.60
2018-09-26T21:02:37.405Z,2.60
2018-09-26T21:05:08.821Z,2.70
2018-09-26T21:07:40.408Z,2.40
2018-09-26T21:10:11.822Z,2.60
2018-09-26T21:12:43.104Z,2.63
2018-09-26T21:15:15.951Z,3.00
2018-09-26T21:17:47.104Z,2.77
2018-09-26T21:20:18.394Z,2.47
2018-09-26T21:22:49.683Z,2.97
2018-09-26T21:25:21.142Z,3.00
2018-09-26T21:27:52.432Z,3.30
2018-09-26T21:30:23.588Z,3.13
2018-09-26T21:32:55.092Z,3.23
2018-09-26T21:35:26.434Z,2.60
2018-09-26T21:37:58.041Z,2.77
2018-09-26T21:40:29.238Z,2.73
2018-09-26T21:43:01.212Z,2.50
2018-09-26T21:45:32.347Z,2.70
2018-09-26T21:48:03.730Z,2.57
2018-09-26T21:50:35.383Z,2.70
2018-09-26T21:53:06.581Z,2.47
2018-09-26T21:55:37.942Z,2.60
2018-09-26T21:58:09.090Z,2.50
2018-09-26T22:00:45.459Z,2.90
2018-09-26T22:03:16.768Z,2.60
2018-09-26T22:05:48.457Z,2.60
2018-09-26T22:08:19.535Z,2.70
2018-09-26T22:10:50.732Z,2.60
2018-09-26T22:13:23.202Z,2.70
2018-09-26T22:15:54.707Z,2.90
2018-09-26T22:18:25.695Z,2.77
2018-09-26T22:20:56.904Z,3.10
2018-09-26T22:23:28.136Z,2.90
2018-09-26T22:25:59.519Z,2.70
2018-09-26T22:28:31.151Z,2.70
2018-09-26T22:31:02.256Z,2.60
2018-09-26T22:33:33.443Z,2.83
2018-09-26T22:36:04.890Z,3.03
2018-09-26T22:38:36.035Z,2.77
2018-09-26T22:41:07.689Z,2.87
2018-09-26T22:43:38.968Z,2.80
2018-09-26T22:46:10.487Z,2.90
2018-09-26T22:48:41.547Z,2.97
2018-09-26T22:51:12.577Z,2.87
2018-09-26T22:53:43.988Z,2.90
2018-09-26T22:56:15.305Z,2.83
2018-09-26T22:58:46.800Z,3.00
2018-09-26T23:01:18.119Z,2.90
2018-09-26T23:03:49.112Z,3.00
2018-09-26T23:06:20.320Z,2.80
2018-09-26T23:08:51.301Z,2.67
2018-09-26T23:11:22.469Z,2.87
2018-09-26T23:13:53.687Z,2.80
2018-09-26T23:16:24.895Z,2.60
2018-09-26T23:18:56.332Z,2.77
2018-09-26T23:21:27.631Z,2.87
2018-09-26T23:23:58.811Z,3.00
2018-09-26T23:26:30.059Z,2.90
2018-09-26T23:29:01.704Z,2.90
2018-09-26T23:31:32.996Z,3.17
2018-09-26T23:34:04.073Z,2.80
2018-09-26T23:36:35.696Z,2.87
2018-09-26T23:39:10.009Z,2.87
2018-09-26T23:41:41.155Z,3.27
2018-09-26T23:44:12.499Z,2.80
2018-09-26T23:46:43.692Z,3.17
2018-09-26T23:49:14.852Z,3.00
2018-09-26T23:51:45.883Z,2.90
2018-09-26T23:54:17.280Z,3.00
2018-09-26T23:56:48.568Z,3.20
2018-09-26T23:59:19.831Z,2.60
